createdAt,value
2023-06-10T00:00:53.959Z,24.71
2023-06-10T00:01:54.975Z,24.70
2023-06-10T00:02:55.058Z,24.69
2023-06-10T00:03:54.270Z,24.69
2023-06-10T00:04:54.992Z,24.68
2023-06-10T00:05:53.950Z,24.67
2023-06-10T00:06:54.943Z,24.68
2023-06-10T00:07:53.917Z,24.67
2023-06-10T00:08:54.913Z,24.67
2023-06-10T00:09:54.917Z,24.67
2023-06-10T00:10:54.934Z,24.67
2023-06-10T00:11:54.889Z,24.67
2023-06-10T00:12:54.896Z,24.67
2023-06-10T00:13:54.879Z,24.67
2023-06-10T00:14:54.874Z,24.67
2023-06-10T00:15:53.908Z,24.67
2023-06-10T00:16:54.888Z,24.66
2023-06-10T00:17:54.932Z,24.65
2023-06-10T00:18:54.890Z,24.65
2023-06-10T00:19:54.856Z,24.66
2023-06-10T00:20:54.852Z,24.65
2023-06-10T00:21:57.339Z,24.65
2023-06-10T00:22:54.916Z,24.64
2023-06-10T00:23:54.969Z,24.65
2023-06-10T00:24:54.900Z,24.65
2023-06-10T00:25:54.940Z,24.65
2023-06-10T00:26:54.893Z,24.65
2023-06-10T00:27:54.873Z,24.64
2023-06-10T00:28:53.852Z,24.64
2023-06-10T00:29:53.855Z,24.64
2023-06-10T00:30:53.844Z,24.64
2023-06-10T00:31:54.881Z,24.64
2023-06-10T00:32:54.920Z,24.64
2023-06-10T00:33:54.851Z,24.64
2023-06-10T00:34:54.824Z,24.64
2023-06-10T00:35:53.817Z,24.64
2023-06-10T00:36:54.808Z,24.63
2023-06-10T00:37:54.827Z,24.63
2023-06-10T00:38:54.803Z,24.62
2023-06-10T00:39:54.793Z,24.62
2023-06-10T00:40:54.801Z,24.62
2023-06-10T00:41:54.772Z,24.62
2023-06-10T00:42:54.775Z,24.62
2023-06-10T00:43:53.754Z,24.61
2023-06-10T00:44:54.821Z,24.61
2023-06-10T00:45:53.752Z,24.61
2023-06-10T00:46:54.772Z,24.61
2023-06-10T00:47:54.834Z,24.61
2023-06-10T00:48:53.768Z,24.60
2023-06-10T00:49:54.793Z,24.61
2023-06-10T00:50:54.789Z,24.60
2023-06-10T00:51:54.811Z,24.60
2023-06-10T00:52:55.801Z,24.60
2023-06-10T00:53:53.967Z,24.60
2023-06-10T00:54:54.966Z,24.60
2023-06-10T00:55:55.044Z,24.60
2023-06-10T00:56:55.093Z,24.60
2023-06-10T00:57:55.096Z,24.60
2023-06-10T00:58:55.203Z,24.59
2023-06-10T00:59:55.225Z,24.59
2023-06-10T01:00:54.268Z,24.59
2023-06-10T01:01:55.296Z,24.59
2023-06-10T01:02:54.426Z,24.60
2023-06-10T01:03:54.402Z,24.59
2023-06-10T01:04:54.434Z,24.58
2023-06-10T01:05:55.835Z,24.58
2023-06-10T01:06:54.611Z,24.57
2023-06-10T01:07:55.543Z,24.58
2023-06-10T01:08:55.599Z,24.57
2023-06-10T01:09:55.669Z,24.57
2023-06-10T01:10:55.662Z,24.57
2023-06-10T01:11:55.762Z,24.57
2023-06-10T01:12:55.794Z,24.57
2023-06-10T01:13:55.795Z,24.56
2023-06-10T01:14:55.919Z,24.56
2023-06-10T01:15:55.904Z,24.56
2023-06-10T01:16:56.046Z,24.56
2023-06-10T01:17:56.061Z,24.55
2023-06-10T01:18:56.091Z,24.55
2023-06-10T01:19:55.106Z,24.56
2023-06-10T01:20:56.127Z,24.55
2023-06-10T01:21:55.182Z,24.55
2023-06-10T01:22:56.244Z,24.55
2023-06-10T01:23:55.502Z,24.55
2023-06-10T01:24:56.362Z,24.55
2023-06-10T01:25:56.383Z,24.55
2023-06-10T01:26:56.416Z,24.54
2023-06-10T01:27:55.494Z,24.54
2023-06-10T01:28:56.517Z,24.53
2023-06-10T01:29:56.576Z,24.54
2023-06-10T01:30:56.669Z,24.53
2023-06-10T01:31:56.715Z,24.53
2023-06-10T01:32:55.722Z,24.53
2023-06-10T01:33:56.727Z,24.52
2023-06-10T01:34:55.741Z,24.52
2023-06-10T01:35:55.825Z,24.53
2023-06-10T01:36:56.840Z,24.52
2023-06-10T01:37:55.847Z,24.51
2023-06-10T01:38:56.954Z,24.52
2023-06-10T01:39:55.983Z,24.51
2023-06-10T01:40:57.007Z,24.51
2023-06-10T01:41:56.045Z,24.51
2023-06-10T01:42:56.100Z,24.51
2023-06-10T01:43:57.157Z,24.51
2023-06-10T01:44:57.180Z,24.51
2023-06-10T01:45:57.230Z,24.51
2023-06-10T01:46:57.411Z,24.50
2023-06-10T01:47:57.390Z,24.50
2023-06-10T01:48:57.353Z,24.50
2023-06-10T01:49:57.431Z,24.50
2023-06-10T01:50:57.463Z,24.49
2023-06-10T01:51:56.470Z,24.49
2023-06-10T01:52:57.577Z,24.49
2023-06-10T01:53:57.546Z,24.49
2023-06-10T01:54:57.593Z,24.50
2023-06-10T01:55:57.663Z,24.49
2023-06-10T01:56:57.679Z,24.48
2023-06-10T01:57:57.698Z,24.49
2023-06-10T01:58:57.717Z,24.49
2023-06-10T01:59:57.776Z,24.49
2023-06-10T02:00:56.930Z,24.48
2023-06-10T02:01:57.829Z,24.48
2023-06-10T02:02:57.932Z,24.47
2023-06-10T02:03:58.033Z,24.48
2023-06-10T02:04:57.930Z,24.48
2023-06-10T02:05:57.979Z,24.47
2023-06-10T02:06:58.068Z,24.46
2023-06-10T02:07:58.040Z,24.46
2023-06-10T02:08:58.179Z,24.46
2023-06-10T02:09:58.182Z,24.46
2023-06-10T02:10:58.206Z,24.46
2023-06-10T02:11:58.256Z,24.45
2023-06-10T02:12:57.279Z,24.45
2023-06-10T02:13:58.294Z,24.44
2023-06-10T02:14:58.342Z,24.45
2023-06-10T02:15:57.446Z,24.45
2023-06-10T02:16:57.524Z,24.44
2023-06-10T02:17:58.475Z,24.45
2023-06-10T02:18:58.601Z,24.45
2023-06-10T02:19:58.584Z,24.44
2023-06-10T02:20:58.589Z,24.44
2023-06-10T02:21:58.699Z,24.44
2023-06-10T02:22:58.668Z,24.45
2023-06-10T02:23:58.735Z,24.44
2023-06-10T02:24:58.786Z,24.44
2023-06-10T02:25:58.798Z,24.44
2023-06-10T02:26:58.822Z,24.45
2023-06-10T02:27:58.831Z,24.44
2023-06-10T02:28:58.905Z,24.44
2023-06-10T02:29:57.900Z,24.43
2023-06-10T02:30:58.927Z,24.43
2023-06-10T02:31:58.986Z,24.44
2023-06-10T02:32:59.009Z,24.43
2023-06-10T02:33:58.994Z,24.43
2023-06-10T02:34:58.089Z,24.42
2023-06-10T02:35:59.076Z,24.42
2023-06-10T02:36:59.144Z,24.42
2023-06-10T02:37:59.213Z,24.42
2023-06-10T02:38:59.213Z,24.42
2023-06-10T02:39:59.245Z,24.42
2023-06-10T02:40:59.269Z,24.42
2023-06-10T02:41:59.325Z,24.41
2023-06-10T02:42:58.386Z,24.42
2023-06-10T02:43:59.375Z,24.41
2023-06-10T02:44:59.420Z,24.41
2023-06-10T02:45:59.505Z,24.41
2023-06-10T02:46:59.473Z,24.41
2023-06-10T02:47:59.543Z,24.41
2023-06-10T02:48:59.493Z,24.41
2023-06-10T02:49:59.577Z,24.41
2023-06-10T02:50:59.584Z,24.41
2023-06-10T02:51:58.596Z,24.41
2023-06-10T02:52:59.622Z,24.40
2023-06-10T02:53:59.643Z,24.40
2023-06-10T02:54:59.781Z,24.40
2023-06-10T02:55:59.711Z,24.40
2023-06-10T02:56:59.766Z,24.40
2023-06-10T02:57:59.749Z,24.40
2023-06-10T02:58:59.784Z,24.39
2023-06-10T02:59:59.803Z,24.39
2023-06-10T03:00:59.868Z,24.39
2023-06-10T03:01:59.914Z,24.38
2023-06-10T03:02:59.882Z,24.39
2023-06-10T03:03:58.908Z,24.38
2023-06-10T03:05:00.048Z,24.38
2023-06-10T03:05:59.992Z,24.39
2023-06-10T03:07:00.014Z,24.38
2023-06-10T03:08:00.045Z,24.38
2023-06-10T03:09:00.057Z,24.38
2023-06-10T03:10:00.139Z,24.38
2023-06-10T03:11:00.089Z,24.37
2023-06-10T03:12:00.150Z,24.37
2023-06-10T03:13:00.129Z,24.37
2023-06-10T03:13:59.156Z,24.37
2023-06-10T03:15:00.188Z,24.36
2023-06-10T03:16:00.280Z,24.36
2023-06-10T03:17:00.204Z,24.36
2023-06-10T03:18:00.237Z,24.36
2023-06-10T03:18:59.315Z,24.36
2023-06-10T03:20:00.308Z,24.36
2023-06-10T03:21:00.351Z,24.36
2023-06-10T03:22:00.301Z,24.36
2023-06-10T03:23:00.355Z,24.36
2023-06-10T03:23:59.417Z,24.36
2023-06-10T03:25:00.423Z,24.36
2023-06-10T03:26:00.447Z,24.36
2023-06-10T03:27:00.425Z,24.35
2023-06-10T03:28:00.488Z,24.35
2023-06-10T03:28:59.455Z,24.35
2023-06-10T03:29:59.472Z,24.35
2023-06-10T03:30:59.551Z,24.35
2023-06-10T03:31:59.497Z,24.35
2023-06-10T03:32:59.658Z,24.34
2023-06-10T03:34:00.576Z,24.34
2023-06-10T03:35:00.574Z,24.33
2023-06-10T03:36:00.602Z,24.34
2023-06-10T03:37:00.638Z,24.34
2023-06-10T03:38:00.592Z,24.34
2023-06-10T03:39:00.650Z,24.34
2023-06-10T03:39:59.633Z,24.33
2023-06-10T03:41:00.713Z,24.33
2023-06-10T03:41:59.723Z,24.33
2023-06-10T03:43:00.662Z,24.33
2023-06-10T03:43:59.691Z,24.33
2023-06-10T03:45:00.772Z,24.33
2023-06-10T03:46:00.737Z,24.32
2023-06-10T03:46:59.745Z,24.33
2023-06-10T03:47:59.838Z,24.33
2023-06-10T03:48:59.778Z,24.33
2023-06-10T03:50:00.761Z,24.33
2023-06-10T03:51:00.780Z,24.33
2023-06-10T03:52:00.803Z,24.33
2023-06-10T03:52:59.827Z,24.33
2023-06-10T03:54:00.820Z,24.32
2023-06-10T03:55:00.945Z,24.32
2023-06-10T03:55:59.865Z,24.32
2023-06-10T03:56:59.872Z,24.32
2023-06-10T03:57:59.879Z,24.32
2023-06-10T03:59:00.974Z,24.31
2023-06-10T04:00:00.938Z,24.32
2023-06-10T04:00:59.940Z,24.32
2023-06-10T04:01:59.992Z,24.32
2023-06-10T04:03:01.017Z,24.31
2023-06-10T04:04:00.937Z,24.31
2023-06-10T04:04:59.964Z,24.31
2023-06-10T04:06:01.037Z,24.30
2023-06-10T04:07:01.003Z,24.30
2023-06-10T04:08:01.021Z,24.30
2023-06-10T04:09:01.056Z,24.29
2023-06-10T04:10:01.083Z,24.29
2023-06-10T04:11:00.137Z,24.30
2023-06-10T04:12:01.118Z,24.29
2023-06-10T04:13:00.140Z,24.29
2023-06-10T04:14:01.099Z,24.29
2023-06-10T04:15:01.117Z,24.29
2023-06-10T04:16:01.123Z,24.29
2023-06-10T04:17:01.163Z,24.29
2023-06-10T04:18:01.232Z,24.29
2023-06-10T04:19:01.186Z,24.29
2023-06-10T04:20:01.246Z,24.29
2023-06-10T04:21:00.199Z,24.29
2023-06-10T04:22:00.243Z,24.29
2023-06-10T04:23:01.238Z,24.29
2023-06-10T04:24:00.271Z,24.29
2023-06-10T04:25:01.259Z,24.29
2023-06-10T04:26:00.250Z,24.29
2023-06-10T04:27:00.300Z,24.29
2023-06-10T04:28:01.326Z,24.30
2023-06-10T04:29:01.382Z,24.30
2023-06-10T04:30:01.360Z,24.30
2023-06-10T04:31:01.389Z,24.30
2023-06-10T04:32:01.434Z,24.30
2023-06-10T04:33:01.454Z,24.31
2023-06-10T04:34:01.455Z,24.31
2023-06-10T04:35:00.563Z,24.32
2023-06-10T04:36:01.555Z,24.31
2023-06-10T04:37:01.545Z,24.32
2023-06-10T04:38:00.584Z,24.31
2023-06-10T04:39:01.612Z,24.32
2023-06-10T04:40:00.678Z,24.32
2023-06-10T04:41:01.687Z,24.31
2023-06-10T04:42:01.713Z,24.32
2023-06-10T04:43:00.708Z,24.32
2023-06-10T04:44:01.731Z,24.33
2023-06-10T04:45:01.769Z,24.32
2023-06-10T04:46:00.844Z,24.33
2023-06-10T04:47:01.860Z,24.33
2023-06-10T04:48:01.918Z,24.33
2023-06-10T04:49:01.842Z,24.33
2023-06-10T04:50:01.923Z,24.34
2023-06-10T04:51:00.932Z,24.34
2023-06-10T04:52:01.955Z,24.34
2023-06-10T04:53:02.049Z,24.35
2023-06-10T04:54:02.020Z,24.34
2023-06-10T04:55:02.076Z,24.35
2023-06-10T04:56:02.124Z,24.35
2023-06-10T04:57:01.128Z,24.35
2023-06-10T04:58:02.178Z,24.35
2023-06-10T04:59:02.224Z,24.36
2023-06-10T05:00:01.325Z,24.37
2023-06-10T05:01:01.302Z,24.36
2023-06-10T05:02:02.355Z,24.37
2023-06-10T05:03:02.606Z,24.37
2023-06-10T05:04:02.456Z,24.38
2023-06-10T05:05:02.489Z,24.38
2023-06-10T05:06:01.530Z,24.39
2023-06-10T05:07:02.575Z,24.39
2023-06-10T05:08:02.624Z,24.39
2023-06-10T05:09:02.668Z,24.39
2023-06-10T05:10:01.710Z,24.39
2023-06-10T05:11:02.832Z,24.40
2023-06-10T05:12:02.805Z,24.41
2023-06-10T05:13:02.857Z,24.41
2023-06-10T05:14:02.917Z,24.41
2023-06-10T05:15:02.937Z,24.42
2023-06-10T05:16:02.074Z,24.42
2023-06-10T05:17:03.045Z,24.42
2023-06-10T05:18:03.151Z,24.43
2023-06-10T05:19:05.609Z,24.43
2023-06-10T05:20:03.112Z,24.44
2023-06-10T05:21:03.112Z,24.44
2023-06-10T05:22:02.136Z,24.44
2023-06-10T05:23:02.094Z,24.45
2023-06-10T05:24:02.196Z,24.46
2023-06-10T05:25:02.115Z,24.45
2023-06-10T05:26:03.084Z,24.46
2023-06-10T05:27:03.117Z,24.47
2023-06-10T05:28:02.167Z,24.47
2023-06-10T05:29:03.215Z,24.47
2023-06-10T05:30:03.248Z,24.47
2023-06-10T05:31:02.301Z,24.49
2023-06-10T05:32:03.384Z,24.48
2023-06-10T05:33:03.409Z,24.49
2023-06-10T05:34:02.432Z,24.50
2023-06-10T05:35:02.452Z,24.50
2023-06-10T05:36:03.493Z,24.51
2023-06-10T05:37:03.580Z,24.51
2023-06-10T05:38:04.085Z,24.51
2023-06-10T05:39:03.624Z,24.52
2023-06-10T05:40:02.738Z,24.52
2023-06-10T05:41:02.724Z,24.52
2023-06-10T05:42:03.752Z,24.52
2023-06-10T05:43:03.806Z,24.53
2023-06-10T05:44:03.851Z,24.53
2023-06-10T05:45:02.965Z,24.53
2023-06-10T05:46:04.015Z,24.54
2023-06-10T05:47:04.001Z,24.55
2023-06-10T05:48:04.072Z,24.55
2023-06-10T05:49:04.082Z,24.56
2023-06-10T05:50:04.131Z,24.57
2023-06-10T05:51:03.205Z,24.57
2023-06-10T05:52:03.200Z,24.58
2023-06-10T05:53:04.247Z,24.58
2023-06-10T05:54:04.315Z,24.58
2023-06-10T05:55:04.347Z,24.58
2023-06-10T05:56:04.386Z,24.58
2023-06-10T05:57:03.467Z,24.60
2023-06-10T05:58:03.466Z,24.60
2023-06-10T05:59:04.547Z,24.60
2023-06-10T06:00:04.581Z,24.61
2023-06-10T06:01:04.683Z,24.61
2023-06-10T06:02:03.749Z,24.62
2023-06-10T06:03:04.766Z,24.62
2023-06-10T06:04:04.748Z,24.62
2023-06-10T06:05:04.936Z,24.63
2023-06-10T06:06:03.838Z,24.63
2023-06-10T06:07:03.892Z,24.64
2023-06-10T06:08:04.959Z,24.65
2023-06-10T06:09:04.995Z,24.65
2023-06-10T06:10:04.057Z,24.65
2023-06-10T06:11:05.077Z,24.65
2023-06-10T06:12:05.102Z,24.67
2023-06-10T06:13:05.163Z,24.66
2023-06-10T06:14:05.223Z,24.67
2023-06-10T06:15:05.305Z,24.68
2023-06-10T06:16:04.313Z,24.68
2023-06-10T06:17:05.401Z,24.68
2023-06-10T06:18:04.455Z,24.68
2023-06-10T06:19:05.414Z,24.69
2023-06-10T06:20:05.495Z,24.70
2023-06-10T06:21:05.533Z,24.70
2023-06-10T06:22:05.618Z,24.70
2023-06-10T06:23:05.636Z,24.71
2023-06-10T06:24:05.767Z,24.72
2023-06-10T06:25:04.726Z,24.72
2023-06-10T06:26:08.718Z,24.72
2023-06-10T06:27:05.736Z,24.72
2023-06-10T06:28:05.701Z,24.73
2023-06-10T06:29:04.690Z,24.73
2023-06-10T06:30:04.754Z,24.74
2023-06-10T06:31:05.722Z,24.75
2023-06-10T06:32:05.673Z,24.74
2023-06-10T06:33:04.844Z,24.76
2023-06-10T06:34:05.658Z,24.76
2023-06-10T06:35:05.633Z,24.76
2023-06-10T06:36:05.672Z,24.77
2023-06-10T06:37:05.640Z,24.77
2023-06-10T06:38:05.656Z,24.78
2023-06-10T06:39:04.647Z,24.79
2023-06-10T06:40:05.620Z,24.79
2023-06-10T06:41:04.647Z,24.79
2023-06-10T06:42:04.615Z,24.80
2023-06-10T06:43:05.611Z,24.81
2023-06-10T06:44:05.730Z,24.82
2023-06-10T06:45:05.594Z,24.82
2023-06-10T06:46:05.597Z,24.83
2023-06-10T06:47:05.575Z,24.83
2023-06-10T06:48:05.652Z,24.84
2023-06-10T06:49:05.563Z,24.84
2023-06-10T06:50:04.539Z,24.84
2023-06-10T06:51:05.602Z,24.85
2023-06-10T06:52:05.545Z,24.85
2023-06-10T06:53:05.524Z,24.86
2023-06-10T06:54:05.570Z,24.86
2023-06-10T06:55:05.625Z,24.87
2023-06-10T06:56:05.673Z,24.87
2023-06-10T06:57:05.666Z,24.87
2023-06-10T06:58:05.711Z,24.88
2023-06-10T06:59:05.798Z,24.88
2023-06-10T07:00:05.748Z,24.89
2023-06-10T07:01:05.797Z,24.89
2023-06-10T07:02:04.799Z,24.90
2023-06-10T07:03:05.911Z,24.90
2023-06-10T07:04:04.867Z,24.90
2023-06-10T07:05:05.968Z,24.92
2023-06-10T07:06:05.933Z,24.91
2023-06-10T07:07:04.952Z,24.92
2023-06-10T07:08:05.954Z,24.92
2023-06-10T07:09:05.015Z,24.93
2023-06-10T07:10:06.021Z,24.94
2023-06-10T07:11:05.051Z,24.94
2023-06-10T07:12:06.087Z,24.95
2023-06-10T07:13:06.083Z,24.96
2023-06-10T07:14:06.111Z,24.96
2023-06-10T07:15:06.226Z,24.96
2023-06-10T07:16:05.256Z,24.97
2023-06-10T07:17:06.285Z,24.97
2023-06-10T07:18:06.235Z,24.98
2023-06-10T07:19:06.587Z,24.99
2023-06-10T07:20:06.248Z,24.99
2023-06-10T07:21:05.278Z,25.00
2023-06-10T07:22:06.333Z,25.00
2023-06-10T07:23:06.330Z,25.01
2023-06-10T07:24:06.355Z,25.02
2023-06-10T07:25:06.492Z,25.01
2023-06-10T07:26:05.367Z,25.02
2023-06-10T07:27:06.378Z,25.02
2023-06-10T07:28:05.409Z,25.03
2023-06-10T07:29:06.401Z,25.04
2023-06-10T07:30:05.405Z,25.04
2023-06-10T07:31:06.453Z,25.04
2023-06-10T07:32:06.426Z,25.05
2023-06-10T07:33:06.465Z,25.05
2023-06-10T07:34:06.438Z,25.05
2023-06-10T07:35:05.453Z,25.06
2023-06-10T07:36:06.480Z,25.06
2023-06-10T07:37:06.679Z,25.07
2023-06-10T07:38:06.506Z,25.07
2023-06-10T07:39:06.502Z,25.09
2023-06-10T07:40:06.541Z,25.08
2023-06-10T07:41:06.559Z,25.09
2023-06-10T07:42:06.580Z,25.10
2023-06-10T07:43:06.604Z,25.10
2023-06-10T07:44:06.627Z,25.10
2023-06-10T07:45:06.862Z,25.11
2023-06-10T07:46:06.775Z,25.11
2023-06-10T07:47:06.632Z,25.11
2023-06-10T07:48:06.707Z,25.12
2023-06-10T07:49:06.651Z,25.13
2023-06-10T07:50:06.638Z,25.13
2023-06-10T07:51:06.677Z,25.13
2023-06-10T07:52:06.752Z,25.13
2023-06-10T07:53:05.706Z,25.15
2023-06-10T07:54:06.697Z,25.15
2023-06-10T07:55:06.795Z,25.16
2023-06-10T07:56:05.698Z,25.16
2023-06-10T07:57:05.864Z,25.16
2023-06-10T07:58:05.763Z,25.17
2023-06-10T07:59:05.781Z,25.17
2023-06-10T08:00:06.799Z,25.18
2023-06-10T08:01:05.781Z,25.18
2023-06-10T08:02:05.808Z,25.19
2023-06-10T08:03:06.893Z,25.19
2023-06-10T08:04:06.930Z,25.19
2023-06-10T08:05:06.924Z,25.19
2023-06-10T08:06:05.856Z,25.20
2023-06-10T08:07:05.869Z,25.21
2023-06-10T08:08:06.912Z,25.21
2023-06-10T08:09:06.909Z,25.21
2023-06-10T08:10:05.909Z,25.22
2023-06-10T08:11:05.935Z,25.22
2023-06-10T08:12:06.987Z,25.23
2023-06-10T08:13:06.978Z,25.23
2023-06-10T08:14:06.000Z,25.24
2023-06-10T08:15:07.157Z,25.24
2023-06-10T08:16:06.066Z,25.24
2023-06-10T08:17:07.100Z,25.24
2023-06-10T08:18:06.134Z,25.26
2023-06-10T08:19:07.114Z,25.25
2023-06-10T08:20:07.117Z,25.25
2023-06-10T08:21:06.166Z,25.26
2023-06-10T08:22:06.218Z,25.26
2023-06-10T08:23:07.281Z,25.27
2023-06-10T08:24:07.417Z,25.27
2023-06-10T08:25:07.675Z,25.27
2023-06-10T08:26:07.428Z,25.27
2023-06-10T08:27:07.446Z,25.29
2023-06-10T08:28:06.529Z,25.29
2023-06-10T08:29:07.525Z,25.29
2023-06-10T08:30:07.555Z,25.29
2023-06-10T08:31:07.615Z,25.30
2023-06-10T08:32:07.723Z,25.31
2023-06-10T08:33:07.703Z,25.31
2023-06-10T08:34:07.691Z,25.31
2023-06-10T08:35:07.957Z,25.31
2023-06-10T08:36:07.819Z,25.32
2023-06-10T08:37:07.827Z,25.32
2023-06-10T08:38:07.942Z,25.33
2023-06-10T08:39:07.925Z,25.33
2023-06-10T08:40:07.973Z,25.33
2023-06-10T08:41:08.075Z,25.34
2023-06-10T08:42:08.038Z,25.34
2023-06-10T08:43:08.175Z,25.34
2023-06-10T08:44:07.124Z,25.35
2023-06-10T08:45:07.305Z,25.35
2023-06-10T08:46:07.202Z,25.36
2023-06-10T08:47:08.185Z,25.36
2023-06-10T08:48:08.328Z,25.37
2023-06-10T08:49:08.420Z,25.37
2023-06-10T08:50:10.800Z,25.37
2023-06-10T08:51:08.298Z,25.37
2023-06-10T08:52:08.313Z,25.38
2023-06-10T08:53:08.266Z,25.37
2023-06-10T08:54:08.271Z,25.38
2023-06-10T08:55:08.511Z,25.38
2023-06-10T08:56:08.258Z,25.39
2023-06-10T08:57:08.347Z,25.39
2023-06-10T08:58:08.380Z,25.39
2023-06-10T08:59:07.364Z,25.39
2023-06-10T09:00:07.665Z,25.40
2023-06-10T09:01:07.498Z,25.40
2023-06-10T09:02:08.483Z,25.41
2023-06-10T09:03:08.530Z,25.41
2023-06-10T09:04:08.617Z,25.42
2023-06-10T09:05:07.552Z,25.42
2023-06-10T09:06:08.592Z,25.42
2023-06-10T09:07:07.652Z,25.43
2023-06-10T09:08:08.716Z,25.43
2023-06-10T09:09:08.717Z,25.43
2023-06-10T09:10:09.384Z,25.44
2023-06-10T09:11:08.821Z,25.44
2023-06-10T09:12:08.910Z,25.44
2023-06-10T09:13:08.913Z,25.45
2023-06-10T09:14:08.987Z,25.45
2023-06-10T09:15:09.028Z,25.45
2023-06-10T09:16:08.103Z,25.45
2023-06-10T09:17:09.087Z,25.46
2023-06-10T09:18:09.239Z,25.47
2023-06-10T09:19:09.327Z,25.46
2023-06-10T09:20:11.096Z,25.47
2023-06-10T09:21:09.266Z,25.47
2023-06-10T09:22:09.218Z,25.47
2023-06-10T09:23:08.224Z,25.48
2023-06-10T09:24:08.273Z,25.48
2023-06-10T09:25:08.257Z,25.48
2023-06-10T09:26:10.735Z,25.48
2023-06-10T09:27:09.521Z,25.49
2023-06-10T09:28:09.486Z,25.49
2023-06-10T09:29:09.520Z,25.49
2023-06-10T09:30:09.048Z,25.50
2023-06-10T09:31:08.798Z,25.49
2023-06-10T09:32:10.645Z,25.50
2023-06-10T09:33:08.772Z,25.50
2023-06-10T09:34:09.766Z,25.50
2023-06-10T09:35:09.796Z,25.51
2023-06-10T09:36:09.828Z,25.51
2023-06-10T09:37:09.869Z,25.51
2023-06-10T09:38:10.843Z,25.51
2023-06-10T09:39:08.987Z,25.51
2023-06-10T09:40:10.384Z,25.52
2023-06-10T09:41:10.085Z,25.52
2023-06-10T09:42:10.109Z,25.52
2023-06-10T09:43:10.099Z,25.52
2023-06-10T09:44:10.511Z,25.52
2023-06-10T09:45:10.249Z,25.52
2023-06-10T09:46:11.523Z,25.53
2023-06-10T09:47:10.241Z,25.53
2023-06-10T09:48:10.252Z,25.53
2023-06-10T09:49:10.224Z,25.54
2023-06-10T09:50:11.314Z,25.54
2023-06-10T09:51:10.311Z,25.54
2023-06-10T09:52:10.247Z,25.55
2023-06-10T09:53:10.236Z,25.56
2023-06-10T09:54:10.246Z,25.56
2023-06-10T09:55:10.254Z,25.56
2023-06-10T09:56:10.962Z,25.57
2023-06-10T09:57:10.393Z,25.57
2023-06-10T09:58:10.432Z,25.57
2023-06-10T09:59:10.428Z,25.57
2023-06-10T10:00:10.655Z,25.58
2023-06-10T10:01:10.603Z,25.58
2023-06-10T10:02:11.239Z,25.59
2023-06-10T10:03:10.653Z,25.59
2023-06-10T10:04:10.648Z,25.59
2023-06-10T10:05:11.108Z,25.58
2023-06-10T10:06:10.831Z,25.59
2023-06-10T10:07:10.785Z,25.60
2023-06-10T10:08:10.863Z,25.58
2023-06-10T10:09:10.916Z,25.59
2023-06-10T10:10:09.909Z,25.59
2023-06-10T10:11:11.007Z,25.60
2023-06-10T10:12:09.990Z,25.61
2023-06-10T10:13:11.031Z,25.59
2023-06-10T10:14:10.956Z,25.59
2023-06-10T10:15:11.366Z,25.60
2023-06-10T10:16:11.254Z,25.61
2023-06-10T10:17:11.320Z,25.62
2023-06-10T10:18:11.420Z,25.62
2023-06-10T10:19:10.315Z,25.62
2023-06-10T10:20:11.340Z,25.62
2023-06-10T10:21:11.380Z,25.63
2023-06-10T10:22:11.450Z,25.62
2023-06-10T10:23:11.524Z,25.61
2023-06-10T10:24:11.639Z,25.61
2023-06-10T10:25:11.862Z,25.61
2023-06-10T10:26:10.917Z,25.60
2023-06-10T10:27:11.709Z,25.61
2023-06-10T10:28:11.730Z,25.61
2023-06-10T10:29:11.720Z,25.62
2023-06-10T10:30:11.795Z,25.62
2023-06-10T10:31:11.947Z,25.62
2023-06-10T10:32:11.971Z,25.63
2023-06-10T10:33:11.985Z,25.63
2023-06-10T10:34:11.143Z,25.64
2023-06-10T10:35:11.240Z,25.64
2023-06-10T10:36:12.041Z,25.63
2023-06-10T10:37:12.136Z,25.63
2023-06-10T10:38:12.142Z,25.63
2023-06-10T10:39:11.156Z,25.63
2023-06-10T10:40:12.199Z,25.64
2023-06-10T10:41:12.229Z,25.64
2023-06-10T10:42:12.328Z,25.65
2023-06-10T10:43:12.354Z,25.65
2023-06-10T10:44:12.411Z,25.65
2023-06-10T10:45:12.703Z,25.64
2023-06-10T10:46:12.568Z,25.64
2023-06-10T10:47:12.465Z,25.64
2023-06-10T10:48:12.580Z,25.64
2023-06-10T10:49:12.615Z,25.65
2023-06-10T10:50:14.819Z,25.65
2023-06-10T10:51:11.630Z,25.65
2023-06-10T10:52:11.629Z,25.66
2023-06-10T10:53:12.588Z,25.67
2023-06-10T10:54:12.594Z,25.67
2023-06-10T10:55:11.658Z,25.67
2023-06-10T10:56:14.534Z,25.67
2023-06-10T10:57:11.621Z,25.67
2023-06-10T10:58:12.531Z,25.66
2023-06-10T10:59:12.536Z,25.66
2023-06-10T11:00:12.598Z,25.67
2023-06-10T11:01:12.520Z,25.66
2023-06-10T11:02:12.602Z,25.67
2023-06-10T11:03:12.679Z,25.67
2023-06-10T11:04:12.575Z,25.68
2023-06-10T11:05:12.057Z,25.68
2023-06-10T11:06:12.541Z,25.68
2023-06-10T11:07:12.470Z,25.68
2023-06-10T11:08:11.530Z,25.68
2023-06-10T11:09:11.472Z,25.68
2023-06-10T11:10:12.436Z,25.68
2023-06-10T11:11:12.436Z,25.68
2023-06-10T11:12:12.446Z,25.68
2023-06-10T11:13:11.419Z,25.68
2023-06-10T11:14:11.435Z,25.68
2023-06-10T11:15:11.685Z,25.68
2023-06-10T11:16:12.470Z,25.69
2023-06-10T11:17:11.406Z,25.69
2023-06-10T11:18:11.417Z,25.69
2023-06-10T11:19:12.389Z,25.69
2023-06-10T11:20:12.470Z,25.69
2023-06-10T11:21:12.395Z,25.69
2023-06-10T11:22:12.379Z,25.69
2023-06-10T11:23:12.375Z,25.69
2023-06-10T11:24:12.494Z,25.69
2023-06-10T11:25:12.485Z,25.69
2023-06-10T11:26:12.411Z,25.70
2023-06-10T11:27:12.422Z,25.71
2023-06-10T11:28:12.534Z,25.71
2023-06-10T11:29:12.541Z,25.71
2023-06-10T11:30:12.530Z,25.71
2023-06-10T11:31:12.592Z,25.72
2023-06-10T11:32:11.638Z,25.72
2023-06-10T11:33:12.744Z,25.71
2023-06-10T11:34:11.856Z,25.72
2023-06-10T11:35:12.937Z,25.73
2023-06-10T11:36:11.785Z,25.72
2023-06-10T11:37:12.800Z,25.73
2023-06-10T11:38:13.586Z,25.71
2023-06-10T11:39:12.815Z,25.72
2023-06-10T11:40:11.847Z,25.72
2023-06-10T11:41:12.824Z,25.72
2023-06-10T11:42:12.803Z,25.72
2023-06-10T11:43:11.809Z,25.73
2023-06-10T11:44:13.329Z,25.73
2023-06-10T11:45:12.059Z,25.72
2023-06-10T11:46:12.766Z,25.72
2023-06-10T11:47:12.762Z,25.72
2023-06-10T11:48:12.808Z,25.73
2023-06-10T11:49:11.777Z,25.74
2023-06-10T11:50:12.741Z,25.73
2023-06-10T11:51:11.763Z,25.73
2023-06-10T11:52:12.719Z,25.72
2023-06-10T11:53:12.733Z,25.73
2023-06-10T11:54:11.748Z,25.73
2023-06-10T11:55:13.063Z,25.73
2023-06-10T11:56:11.694Z,25.73
2023-06-10T11:57:11.701Z,25.73
2023-06-10T11:58:12.695Z,25.74
2023-06-10T11:59:12.672Z,25.72
2023-06-10T12:00:12.670Z,25.74
2023-06-10T12:01:13.289Z,25.74
2023-06-10T12:02:12.671Z,25.73
2023-06-10T12:03:12.866Z,25.73
2023-06-10T12:04:12.641Z,25.74
2023-06-10T12:05:11.939Z,25.74
2023-06-10T12:06:12.620Z,25.73
2023-06-10T12:07:12.618Z,25.73
2023-06-10T12:08:12.620Z,25.73
2023-06-10T12:09:23.484Z,25.73
2023-06-10T12:11:12.603Z,25.72
2023-06-10T12:12:11.585Z,25.72
2023-06-10T12:13:12.572Z,25.73
2023-06-10T12:14:11.572Z,25.74
2023-06-10T12:15:11.830Z,25.74
2023-06-10T12:16:12.562Z,25.74
2023-06-10T12:17:11.552Z,25.74
2023-06-10T12:18:11.554Z,25.73
2023-06-10T12:19:12.540Z,25.73
2023-06-10T12:20:12.505Z,25.74
2023-06-10T12:21:12.539Z,25.73
2023-06-10T12:22:11.509Z,25.73
2023-06-10T12:23:12.489Z,25.73
2023-06-10T12:24:12.907Z,25.73
2023-06-10T12:25:12.998Z,25.74
2023-06-10T12:26:12.483Z,25.74
2023-06-10T12:27:12.488Z,25.74
2023-06-10T12:28:12.527Z,25.74
2023-06-10T12:29:12.448Z,25.74
2023-06-10T12:30:12.771Z,25.74
2023-06-10T12:31:12.439Z,25.74
2023-06-10T12:32:11.555Z,25.75
2023-06-10T12:33:11.477Z,25.73
2023-06-10T12:34:12.440Z,25.74
2023-06-10T12:35:12.670Z,25.74
2023-06-10T12:36:12.441Z,25.75
2023-06-10T12:37:11.440Z,25.73
2023-06-10T12:38:11.478Z,25.74
2023-06-10T12:39:12.580Z,25.74
2023-06-10T12:40:11.524Z,25.74
2023-06-10T12:41:12.625Z,25.73
2023-06-10T12:42:12.687Z,25.73
2023-06-10T12:43:12.625Z,25.72
2023-06-10T12:44:12.664Z,25.73
2023-06-10T12:45:12.913Z,25.74
2023-06-10T12:46:12.852Z,25.75
2023-06-10T12:47:12.795Z,25.74
2023-06-10T12:48:12.917Z,25.74
2023-06-10T12:49:11.861Z,25.73
2023-06-10T12:50:13.092Z,25.74
2023-06-10T12:51:11.951Z,25.74
2023-06-10T12:52:12.988Z,25.74
2023-06-10T12:53:13.019Z,25.73
2023-06-10T12:54:13.090Z,25.73